Portada
METAR-TAF:

METAR-TAF

Aeropuertos :

Aeropuerto de Murcia-San Javier

Murcia, España

latitud: 37-47N, longitud: 000-48W, altitud: 5 m

Observación

El informe se hizo hace 27 minutos, a las 01:00 UTC
Viento 21 kt del norte-noreste
Temperatura 15°C
Humedad 77%
Presión 1021 hPa
Visibilidad: 9000 m

METAR: LELC 020100Z AUTO 03021KT 9000 NCD 15/11 Q1021

Hora: 02:27 (01:27 UTC)

Pronóstico

El informe se hizo hace 2 horas y 27 minutos, a las 23:00 UTC
Pronóstico válido del 02 a las 00 UTC al 02 a las 24 UTC
Viento 15 kt del norte-noreste
Visibilidad 10 km o más
Escasas nubes a una altura de 3000 ft
Probabilidad 40% :
Temporalmente
del 02 a las 00 UTC al 02 a las 15 UTC
Viento 18 kt del norte-noreste con ráfagas de 30 kt

TAF: LELC 012300Z 0200/0224 02015KT 9999 FEW030 TX18/0214Z TN12/0206Z PROB40 TEMPO 0200/0215 03018G30KT

Observaciones y pronósticos meteorológicos de más de 4000 aeropuertos (mensajes METAR y TAF).

Los puntos amarillos y rojos representan las estaciones disponibles.

Ponga el ratón en el punto deseado para ver el nombre de la estación.

Haga clic para ver las observaciones y los pronósticos meteorológicos.

Para cambiar el mapa : haga clic en los botones verdes con una cruz de color negro para hacer un zoom, en el botón verde con un guión para alejar o en las flechas verdes para mapas adyacentes.


METAR-TAF: